Weather at Nashua Airport / Boire Field

Public forecast

Using degrees Fahrenheit for public forecast. Weather courtesy of forecast.io.

Current aviation weather report (METAR) for Nashua Airport / Boire Field

Retrieved 2020/09/29 19:56 UTC (31 minutes ago):

KASH 291956Z 16005KT 10SM BKN055 OVC070 26/18 A2983 RMK AO2 SLP105 T02560178

Closest aviation forecast (TAF) to Nashua Airport / Boire Field

Closest forecast is Manchester-Boston Regional Airport, 9.7 nm (18.0 km) NNE. Retrieved 2020/09/29 18:22 UTC (2 hours ago):

TAF KMHT 291720Z 2918/3018 19008KT P6SM FEW035 BKN250 FM300300 14007KT 5SM -SHRA BR OVC020 FM300700 16012G23KT 3SM -RA BR OVC007 WS020/18050KT FM301400 24010G17KT P6SM BKN020 OVC100